createdAt,value
2023-04-20T00:02:07.770Z,9.41
2023-04-20T00:04:36.831Z,9.36
2023-04-20T00:07:05.467Z,9.44
2023-04-20T00:09:34.003Z,9.43
2023-04-20T00:12:02.428Z,9.39
2023-04-20T00:14:31.054Z,9.36
2023-04-20T00:16:59.531Z,9.44
2023-04-20T00:19:28.629Z,9.45
2023-04-20T00:21:56.955Z,9.50
2023-04-20T00:24:25.543Z,9.58
2023-04-20T00:26:55.200Z,9.59
2023-04-20T00:29:23.617Z,9.59
2023-04-20T00:31:52.013Z,9.62
2023-04-20T00:34:20.894Z,9.64
2023-04-20T00:36:49.276Z,9.64
2023-04-20T00:39:17.933Z,9.60
2023-04-20T00:41:46.454Z,9.58
2023-04-20T00:44:14.951Z,9.53
2023-04-20T00:46:43.630Z,9.53
2023-04-20T00:49:12.289Z,9.52
2023-04-20T00:51:41.079Z,9.50
2023-04-20T00:54:09.589Z,9.50
2023-04-20T00:56:38.704Z,9.54
2023-04-20T00:59:09.568Z,9.51
2023-04-20T01:01:37.956Z,9.50
2023-04-20T01:04:08.053Z,9.51
2023-04-20T01:06:36.600Z,9.49
2023-04-20T01:09:05.279Z,9.57
2023-04-20T01:11:33.652Z,9.52
2023-04-20T01:14:02.413Z,9.58
2023-04-20T01:16:35.087Z,9.58
2023-04-20T01:19:03.899Z,9.60
2023-04-20T01:21:34.954Z,9.59
2023-04-20T01:24:03.687Z,9.60
2023-04-20T01:26:34.100Z,9.60
2023-04-20T01:29:02.723Z,9.62
2023-04-20T01:31:32.034Z,9.62
2023-04-20T01:34:00.506Z,9.58
2023-04-20T01:36:29.020Z,9.55
2023-04-20T01:38:57.823Z,9.60
2023-04-20T01:41:27.270Z,9.64
2023-04-20T01:43:58.236Z,9.65
2023-04-20T01:46:26.653Z,9.59
2023-04-20T01:48:55.027Z,9.53
2023-04-20T01:51:23.876Z,9.51
2023-04-20T01:53:52.221Z,9.60
2023-04-20T01:56:20.668Z,9.59
2023-04-20T01:58:49.697Z,9.57
2023-04-20T02:01:18.427Z,9.55
2023-04-20T02:03:47.044Z,9.55
2023-04-20T02:06:15.771Z,9.59
2023-04-20T02:08:44.132Z,9.57
2023-04-20T02:11:13.129Z,9.60
2023-04-20T02:13:41.962Z,9.62
2023-04-20T02:16:11.074Z,9.63
2023-04-20T02:18:39.711Z,9.56
2023-04-20T02:21:08.507Z,9.54
2023-04-20T02:23:37.075Z,9.60
2023-04-20T02:26:05.762Z,9.64
2023-04-20T02:28:34.125Z,9.58
2023-04-20T02:31:02.523Z,9.55
2023-04-20T02:33:31.269Z,9.60
2023-04-20T02:35:59.622Z,9.62
2023-04-20T02:38:27.978Z,9.59
2023-04-20T02:40:56.396Z,9.59
2023-04-20T02:43:25.136Z,9.55
2023-04-20T02:45:53.600Z,9.55
2023-04-20T02:48:23.096Z,9.58
2023-04-20T02:50:55.003Z,9.59
2023-04-20T02:53:24.503Z,9.56
2023-04-20T02:56:13.169Z,9.59
2023-04-20T02:58:48.532Z,9.61
2023-04-20T03:01:26.746Z,9.58
2023-04-20T03:04:02.473Z,9.55
2023-04-20T03:06:32.932Z,9.50
2023-04-20T03:09:01.702Z,9.44
2023-04-20T03:11:59.024Z,9.46
2023-04-20T03:14:50.450Z,9.46
2023-04-20T03:17:20.767Z,9.48
2023-04-20T03:19:49.177Z,9.44
2023-04-20T03:22:19.452Z,9.42
2023-04-20T03:24:51.921Z,9.38
2023-04-20T03:27:34.283Z,9.37
2023-04-20T03:30:08.687Z,9.37
2023-04-20T03:32:38.522Z,9.38
2023-04-20T03:35:07.521Z,9.33
2023-04-20T03:37:38.957Z,9.33
2023-04-20T03:40:08.967Z,9.31
2023-04-20T03:42:39.876Z,9.31
2023-04-20T03:45:08.713Z,9.31
2023-04-20T03:47:37.196Z,9.31
2023-04-20T03:50:06.177Z,9.33
2023-04-20T03:52:34.702Z,9.31
2023-04-20T03:55:06.051Z,9.26
2023-04-20T03:57:34.440Z,9.23
2023-04-20T04:00:04.909Z,9.23
2023-04-20T04:02:47.017Z,9.31
2023-04-20T04:05:19.910Z,9.30
2023-04-20T04:07:50.763Z,9.30
2023-04-20T04:10:20.525Z,9.30
2023-04-20T04:12:50.130Z,9.32
2023-04-20T04:15:19.661Z,9.28
2023-04-20T04:17:54.872Z,9.32
2023-04-20T04:20:23.741Z,9.29
2023-04-20T04:22:53.037Z,9.31
2023-04-20T04:25:40.691Z,9.28
2023-04-20T04:28:09.229Z,9.27
2023-04-20T04:30:39.717Z,9.23
2023-04-20T04:33:10.449Z,9.27
2023-04-20T04:35:41.832Z,9.24
2023-04-20T04:38:13.010Z,9.28
2023-04-20T04:40:46.041Z,9.21
2023-04-20T04:43:14.756Z,9.23
2023-04-20T04:45:50.103Z,9.25
2023-04-20T04:48:20.043Z,9.15
2023-04-20T04:50:48.559Z,9.19
2023-04-20T04:53:16.968Z,9.21
2023-04-20T04:55:46.765Z,9.19
2023-04-20T04:58:15.615Z,9.19
2023-04-20T05:00:44.317Z,9.13
2023-04-20T05:03:13.281Z,9.16
2023-04-20T05:05:42.021Z,9.19
2023-04-20T05:08:10.430Z,9.20
2023-04-20T05:10:38.898Z,9.18
2023-04-20T05:13:07.348Z,9.15
2023-04-20T05:15:39.306Z,9.09
2023-04-20T05:18:07.797Z,9.01
2023-04-20T05:20:36.219Z,9.03
2023-04-20T05:23:04.953Z,8.99
2023-04-20T05:25:33.330Z,8.99
2023-04-20T05:28:01.607Z,9.04
2023-04-20T05:30:30.883Z,9.08
2023-04-20T05:32:59.380Z,9.08
2023-04-20T05:35:27.785Z,9.05
2023-04-20T05:37:56.330Z,9.11
2023-04-20T05:40:24.738Z,9.11
2023-04-20T05:42:53.056Z,9.13
2023-04-20T05:45:21.526Z,9.12
2023-04-20T05:47:54.344Z,9.13
2023-04-20T05:50:24.131Z,9.14
2023-04-20T05:52:53.558Z,9.17
2023-04-20T05:55:23.027Z,9.16
2023-04-20T05:57:52.869Z,9.17
2023-04-20T06:00:23.871Z,9.16
2023-04-20T06:02:55.206Z,9.15
2023-04-20T06:05:24.090Z,9.14
2023-04-20T06:07:53.390Z,9.25
2023-04-20T06:10:21.972Z,9.25
2023-04-20T06:12:50.863Z,9.28
2023-04-20T06:15:19.361Z,9.30
2023-04-20T06:17:47.935Z,9.30
2023-04-20T06:20:17.079Z,9.28
2023-04-20T06:22:45.682Z,9.35
2023-04-20T06:25:15.944Z,9.35
2023-04-20T06:27:44.676Z,9.45
2023-04-20T06:30:13.667Z,9.51
2023-04-20T06:32:42.446Z,9.53
2023-04-20T06:35:11.068Z,9.54
2023-04-20T06:37:40.477Z,9.53
2023-04-20T06:40:09.037Z,9.52
2023-04-20T06:42:37.858Z,9.55
2023-04-20T06:45:07.177Z,9.60
2023-04-20T06:47:35.754Z,9.63
2023-04-20T06:50:10.066Z,9.64
2023-04-20T06:52:39.454Z,9.67
2023-04-20T06:55:08.419Z,9.57
2023-04-20T06:57:38.876Z,9.58
2023-04-20T07:00:09.266Z,9.64
2023-04-20T07:02:48.873Z,9.66
2023-04-20T07:05:18.162Z,9.63
2023-04-20T07:07:47.033Z,9.66
2023-04-20T07:10:16.082Z,9.55
2023-04-20T07:12:44.690Z,9.57
2023-04-20T07:15:13.399Z,9.63
2023-04-20T07:17:41.833Z,9.67
2023-04-20T07:20:11.330Z,9.82
2023-04-20T07:22:39.828Z,9.91
2023-04-20T07:25:09.422Z,9.98
2023-04-20T07:27:39.564Z,10.02
2023-04-20T07:30:09.253Z,10.15
2023-04-20T07:32:39.053Z,10.20
2023-04-20T07:35:08.313Z,10.25
2023-04-20T07:37:36.879Z,10.34
2023-04-20T07:40:08.868Z,10.46
2023-04-20T07:42:37.649Z,10.41
2023-04-20T07:45:11.034Z,10.46
2023-04-20T07:47:39.917Z,10.45
2023-04-20T07:50:08.864Z,10.52
2023-04-20T07:52:37.283Z,10.43
2023-04-20T07:55:08.721Z,10.40
2023-04-20T07:57:37.427Z,10.37
2023-04-20T08:00:10.528Z,10.40
2023-04-20T08:02:42.156Z,10.37
2023-04-20T08:05:16.619Z,10.29
2023-04-20T08:07:45.637Z,10.30
2023-04-20T08:10:14.249Z,10.27
2023-04-20T08:12:42.704Z,10.35
2023-04-20T08:15:11.507Z,10.38
2023-04-20T08:17:40.079Z,10.41
2023-04-20T08:20:10.869Z,10.40
2023-04-20T08:22:39.617Z,10.47
2023-04-20T08:25:08.421Z,10.56
2023-04-20T08:27:37.302Z,10.60
2023-04-20T08:30:06.813Z,10.63
2023-04-20T08:32:35.265Z,10.59
2023-04-20T08:35:04.868Z,10.62
2023-04-20T08:37:33.397Z,10.65
2023-04-20T08:40:01.885Z,10.65
2023-04-20T08:42:31.228Z,10.68
2023-04-20T08:45:00.295Z,10.79
2023-04-20T08:47:29.565Z,10.84
2023-04-20T08:49:59.316Z,10.86
2023-04-20T08:52:27.643Z,10.73
2023-04-20T08:54:57.802Z,10.68
2023-04-20T08:57:26.495Z,10.57
2023-04-20T08:59:56.681Z,10.43
2023-04-20T09:02:25.255Z,10.36
2023-04-20T09:05:06.981Z,10.29
2023-04-20T09:07:35.432Z,10.30
2023-04-20T09:10:03.885Z,10.29
2023-04-20T09:12:41.875Z,10.37
2023-04-20T09:15:11.494Z,10.30
2023-04-20T09:17:41.585Z,10.41
2023-04-20T09:20:11.519Z,10.42
2023-04-20T09:22:41.121Z,10.42
2023-04-20T09:25:19.438Z,10.44
2023-04-20T09:28:01.575Z,10.29
2023-04-20T09:30:46.907Z,10.35
2023-04-20T09:33:15.884Z,10.45
2023-04-20T09:35:45.463Z,10.52
2023-04-20T09:38:17.351Z,10.51
2023-04-20T09:40:46.091Z,10.59
2023-04-20T09:43:19.636Z,10.60
2023-04-20T09:45:49.430Z,10.67
2023-04-20T09:48:19.741Z,10.67
2023-04-20T09:50:51.010Z,10.75
2023-04-20T09:53:20.713Z,10.73
2023-04-20T09:55:50.660Z,10.82
2023-04-20T09:58:20.766Z,10.87
2023-04-20T10:00:50.083Z,10.87
2023-04-20T10:03:22.310Z,10.91
2023-04-20T10:05:53.475Z,10.78
2023-04-20T10:08:24.519Z,10.95
2023-04-20T10:10:52.892Z,11.02
2023-04-20T10:13:23.540Z,11.05
2023-04-20T10:15:53.018Z,11.08
2023-04-20T10:18:24.746Z,11.12
2023-04-20T10:21:06.338Z,11.21
2023-04-20T10:23:35.029Z,11.26
2023-04-20T10:26:04.118Z,11.27
2023-04-20T10:28:40.653Z,11.33
2023-04-20T10:31:13.320Z,11.35
2023-04-20T10:33:55.714Z,11.41
2023-04-20T10:36:29.248Z,11.47
2023-04-20T10:39:05.930Z,11.49
2023-04-20T10:41:34.648Z,11.46
2023-04-20T10:44:09.360Z,11.43
2023-04-20T10:46:37.805Z,11.41
2023-04-20T10:49:06.898Z,11.40
2023-04-20T10:51:35.289Z,11.25
2023-04-20T10:54:08.645Z,11.13
2023-04-20T10:56:42.384Z,11.01
2023-04-20T10:59:14.816Z,11.01
2023-04-20T11:01:44.798Z,10.92
2023-04-20T11:04:14.504Z,10.92
2023-04-20T11:06:45.399Z,10.95
2023-04-20T11:09:28.710Z,10.95
2023-04-20T11:12:04.834Z,11.00
2023-04-20T11:14:38.564Z,11.03
2023-04-20T11:17:07.155Z,11.05
2023-04-20T11:19:37.265Z,11.02
2023-04-20T11:22:06.810Z,11.10
2023-04-20T11:24:36.140Z,11.13
2023-04-20T11:27:05.141Z,11.23
2023-04-20T11:29:35.542Z,11.20
2023-04-20T11:32:09.002Z,11.15
2023-04-20T11:34:40.001Z,11.17
2023-04-20T11:37:10.764Z,11.18
2023-04-20T11:39:39.467Z,11.29
2023-04-20T11:42:07.912Z,11.37
2023-04-20T11:44:37.279Z,11.40
2023-04-20T11:47:06.349Z,11.40
2023-04-20T11:49:34.815Z,11.46
2023-04-20T11:52:03.582Z,11.46
2023-04-20T11:54:34.273Z,11.53
2023-04-20T11:57:02.920Z,11.52
2023-04-20T11:59:31.338Z,11.43
2023-04-20T12:02:04.388Z,11.43
2023-04-20T12:04:34.690Z,11.47
2023-04-20T12:07:03.665Z,11.37
2023-04-20T12:09:36.350Z,11.34
2023-04-20T12:12:05.914Z,11.26
2023-04-20T12:14:34.556Z,11.26
2023-04-20T12:17:04.255Z,11.26
2023-04-20T12:19:37.366Z,11.21
2023-04-20T12:22:06.219Z,11.20
2023-04-20T12:24:34.741Z,11.12
2023-04-20T12:27:08.934Z,11.07
2023-04-20T12:29:37.235Z,11.03
2023-04-20T12:32:05.563Z,11.02
2023-04-20T12:34:34.233Z,11.01
2023-04-20T12:37:02.665Z,11.07
2023-04-20T12:39:31.140Z,11.04
2023-04-20T12:41:59.562Z,11.09
2023-04-20T12:44:28.018Z,11.09
2023-04-20T12:46:56.483Z,11.09
2023-04-20T12:49:25.026Z,10.91
2023-04-20T12:51:53.410Z,10.73
2023-04-20T12:54:21.887Z,10.72
2023-04-20T12:56:50.382Z,10.65
2023-04-20T12:59:18.681Z,10.56
2023-04-20T13:01:47.118Z,10.60
2023-04-20T13:04:16.592Z,10.66
2023-04-20T13:06:45.836Z,10.58
2023-04-20T13:09:14.163Z,10.57
2023-04-20T13:11:42.490Z,10.61
2023-04-20T13:14:10.860Z,10.52
2023-04-20T13:16:39.350Z,10.55
2023-04-20T13:19:08.169Z,10.62
2023-04-20T13:21:36.575Z,10.61
2023-04-20T13:24:05.068Z,10.64
2023-04-20T13:26:33.580Z,10.66
2023-04-20T13:29:02.058Z,10.67
2023-04-20T13:31:31.465Z,10.71
2023-04-20T13:33:59.856Z,10.77
2023-04-20T13:36:28.462Z,10.77
2023-04-20T13:38:57.076Z,10.77
2023-04-20T13:41:26.276Z,10.73
2023-04-20T13:43:54.757Z,10.65
2023-04-20T13:46:23.299Z,10.55
2023-04-20T13:48:51.805Z,10.53
2023-04-20T13:51:20.219Z,10.53
2023-04-20T13:53:48.885Z,10.36
2023-04-20T13:56:17.305Z,10.35
2023-04-20T13:58:45.893Z,10.33
2023-04-20T14:01:17.761Z,10.28
2023-04-20T14:03:46.423Z,10.20
2023-04-20T14:06:15.204Z,10.14
2023-04-20T14:08:43.600Z,10.10
2023-04-20T14:11:11.917Z,10.09
2023-04-20T14:13:41.315Z,10.10
2023-04-20T14:16:11.138Z,10.08
2023-04-20T14:18:39.757Z,10.06
2023-04-20T14:21:08.553Z,10.06
2023-04-20T14:23:36.968Z,10.06
2023-04-20T14:26:05.470Z,10.00
2023-04-20T14:28:34.103Z,9.99
2023-04-20T14:31:03.330Z,9.96
2023-04-20T14:33:31.757Z,9.92
2023-04-20T14:36:00.335Z,9.92
2023-04-20T14:38:28.818Z,9.91
2023-04-20T14:40:57.194Z,9.89
2023-04-20T14:43:25.609Z,9.77
2023-04-20T14:45:55.503Z,9.81
2023-04-20T14:48:25.345Z,9.87
2023-04-20T14:50:53.905Z,9.82
2023-04-20T14:53:22.322Z,9.72
2023-04-20T14:55:51.570Z,9.75
2023-04-20T14:58:20.242Z,9.74
2023-04-20T15:00:51.281Z,9.77
2023-04-20T15:03:19.987Z,9.70
2023-04-20T15:05:48.552Z,9.71
2023-04-20T15:08:17.123Z,9.63
2023-04-20T15:10:45.432Z,9.47
2023-04-20T15:13:13.650Z,9.59
2023-04-20T15:18:19.161Z,9.49
2023-04-20T15:20:47.885Z,9.58
2023-04-20T15:23:16.632Z,9.61
2023-04-20T15:25:45.155Z,9.56
2023-04-20T15:28:13.616Z,9.59
2023-04-20T15:30:42.196Z,9.43
2023-04-20T15:33:11.197Z,9.46
2023-04-20T15:35:39.812Z,9.51
2023-04-20T15:38:08.446Z,9.54
2023-04-20T15:40:36.869Z,9.54
2023-04-20T15:43:05.333Z,9.56
2023-04-20T15:45:33.811Z,9.60
2023-04-20T15:48:02.294Z,9.62
2023-04-20T15:50:30.905Z,9.45
2023-04-20T15:52:59.203Z,9.39
2023-04-20T15:55:27.926Z,9.40
2023-04-20T15:57:58.416Z,9.42
2023-04-20T16:00:27.297Z,9.45
2023-04-20T16:02:55.798Z,9.46
2023-04-20T16:05:24.283Z,9.50
2023-04-20T16:07:53.811Z,9.48
2023-04-20T16:10:23.736Z,9.48
2023-04-20T16:12:52.346Z,9.46
2023-04-20T16:15:20.900Z,9.51
2023-04-20T16:17:49.347Z,9.52
2023-04-20T16:20:17.849Z,9.50
2023-04-20T16:22:46.361Z,9.48
2023-04-20T16:25:23.020Z,9.43
2023-04-20T16:27:51.915Z,9.39
2023-04-20T16:30:20.658Z,9.35
2023-04-20T16:32:49.572Z,9.37
2023-04-20T16:35:17.945Z,9.34
2023-04-20T16:37:46.984Z,9.30
2023-04-20T16:40:15.524Z,9.27
2023-04-20T16:42:43.966Z,9.20
2023-04-20T16:45:12.628Z,9.23
2023-04-20T16:47:41.478Z,9.19
2023-04-20T16:50:12.672Z,9.14
2023-04-20T16:52:41.077Z,9.12
2023-04-20T16:55:09.871Z,9.11
2023-04-20T16:57:38.248Z,9.10
2023-04-20T17:00:07.239Z,9.09
2023-04-20T17:02:36.359Z,9.02
2023-04-20T17:05:07.106Z,8.93
2023-04-20T17:07:37.223Z,8.84
2023-04-20T17:10:06.203Z,8.73
2023-04-20T17:12:34.769Z,8.70
2023-04-20T17:15:03.556Z,8.64
2023-04-20T17:17:33.024Z,8.63
2023-04-20T17:20:02.108Z,8.62
2023-04-20T17:22:30.549Z,8.66
2023-04-20T17:24:59.040Z,8.65
2023-04-20T17:27:27.748Z,8.67
2023-04-20T17:29:56.220Z,8.63
2023-04-20T17:32:24.780Z,8.53
2023-04-20T17:34:54.053Z,8.59
2023-04-20T17:37:23.392Z,8.62
2023-04-20T17:39:51.754Z,8.62
2023-04-20T17:42:20.085Z,8.62
2023-04-20T17:44:48.575Z,8.64
2023-04-20T17:47:16.976Z,8.62
2023-04-20T17:49:46.039Z,8.57
2023-04-20T17:52:18.155Z,8.55
2023-04-20T17:54:46.570Z,8.62
2023-04-20T17:57:14.876Z,8.59
2023-04-20T17:59:43.246Z,8.63
2023-04-20T18:02:12.056Z,8.70
2023-04-20T18:04:41.406Z,8.65
2023-04-20T18:07:10.074Z,8.68
2023-04-20T18:09:39.173Z,8.52
2023-04-20T18:12:13.378Z,8.52
2023-04-20T18:14:42.690Z,8.54
2023-04-20T18:17:11.639Z,8.49
2023-04-20T18:19:41.165Z,8.62
2023-04-20T18:22:09.531Z,8.68
2023-04-20T18:24:38.623Z,8.65
2023-04-20T18:27:07.129Z,8.52
2023-04-20T18:29:35.726Z,8.51
2023-04-20T18:32:04.294Z,8.42
2023-04-20T18:34:32.785Z,8.37
2023-04-20T18:37:01.098Z,8.31
2023-04-20T18:39:30.092Z,8.31
2023-04-20T18:41:58.426Z,8.28
2023-04-20T18:44:28.441Z,8.16
2023-04-20T18:46:57.265Z,8.28
2023-04-20T18:49:25.959Z,8.26
2023-04-20T18:51:54.498Z,8.22
2023-04-20T18:54:22.873Z,8.22
2023-04-20T18:56:51.295Z,8.24
2023-04-20T18:59:20.489Z,8.31
2023-04-20T19:01:49.174Z,8.35
2023-04-20T19:04:18.086Z,8.29
2023-04-20T19:06:46.669Z,8.28
2023-04-20T19:09:15.346Z,8.26
2023-04-20T19:11:43.780Z,8.26
2023-04-20T19:14:12.511Z,8.26
2023-04-20T19:16:41.151Z,8.29
2023-04-20T19:19:10.026Z,8.27
2023-04-20T19:21:38.710Z,8.27
2023-04-20T19:24:07.409Z,8.29
2023-04-20T19:26:35.908Z,8.27
2023-04-20T19:29:04.672Z,8.22
2023-04-20T19:31:37.810Z,8.23
2023-04-20T19:34:07.163Z,8.12
2023-04-20T19:36:35.594Z,8.07
2023-04-20T19:39:04.415Z,7.94
2023-04-20T19:41:33.250Z,7.91
2023-04-20T19:44:04.623Z,7.96
2023-04-20T19:46:34.052Z,7.95
2023-04-20T19:49:02.637Z,7.91
2023-04-20T19:51:31.848Z,7.93
2023-04-20T19:54:01.101Z,7.96
2023-04-20T19:56:29.761Z,7.95
2023-04-20T19:58:58.122Z,7.88
2023-04-20T20:01:27.140Z,7.79
2023-04-20T20:03:55.833Z,7.79
2023-04-20T20:06:24.466Z,7.84
2023-04-20T20:08:53.399Z,7.85
2023-04-20T20:11:22.779Z,7.81
2023-04-20T20:13:51.809Z,7.72
2023-04-20T20:16:20.579Z,7.72
2023-04-20T20:18:49.153Z,7.70
2023-04-20T20:21:17.717Z,7.71
2023-04-20T20:23:46.507Z,7.71
2023-04-20T20:26:15.018Z,7.65
2023-04-20T20:28:43.551Z,7.59
2023-04-20T20:31:12.006Z,7.57
2023-04-20T20:33:43.134Z,7.56
2023-04-20T20:36:11.585Z,7.53
2023-04-20T20:38:40.869Z,7.52
2023-04-20T20:41:09.640Z,7.52
2023-04-20T20:43:38.191Z,7.53
2023-04-20T20:46:06.984Z,7.53
2023-04-20T20:48:35.545Z,7.57
2023-04-20T20:51:03.989Z,7.52
2023-04-20T20:53:32.388Z,7.49
2023-04-20T20:56:00.732Z,7.53
2023-04-20T20:58:29.723Z,7.49
2023-04-20T21:00:58.369Z,7.46
2023-04-20T21:03:27.145Z,7.43
2023-04-20T21:05:55.764Z,7.52
2023-04-20T21:08:24.167Z,7.57
2023-04-20T21:10:52.506Z,7.51
2023-04-20T21:13:22.270Z,7.43
2023-04-20T21:15:50.829Z,7.44
2023-04-20T21:18:19.424Z,7.53
2023-04-20T21:20:47.801Z,7.57
2023-04-20T21:23:16.072Z,7.59
2023-04-20T21:25:44.340Z,7.62
2023-04-20T21:28:12.580Z,7.67
2023-04-20T21:30:40.837Z,7.67
2023-04-20T21:33:09.211Z,7.69
2023-04-20T21:35:37.897Z,7.76
2023-04-20T21:38:06.220Z,7.79
2023-04-20T21:40:34.525Z,7.79
2023-04-20T21:43:02.894Z,7.73
2023-04-20T21:45:31.175Z,7.68
2023-04-20T21:47:59.648Z,7.72
2023-04-20T21:50:28.799Z,7.70
2023-04-20T21:52:57.151Z,7.71
2023-04-20T21:55:25.482Z,7.74
2023-04-20T21:57:53.793Z,7.56
2023-04-20T22:00:22.899Z,7.56
2023-04-20T22:02:51.934Z,7.57
2023-04-20T22:05:20.414Z,7.59
2023-04-20T22:07:48.735Z,7.61
2023-04-20T22:10:17.175Z,7.59
2023-04-20T22:12:45.699Z,7.59
2023-04-20T22:15:14.594Z,7.54
2023-04-20T22:17:46.602Z,7.58
2023-04-20T22:20:16.242Z,7.57
2023-04-20T22:22:45.597Z,7.52
2023-04-20T22:25:13.912Z,7.56
2023-04-20T22:27:42.400Z,7.54
2023-04-20T22:30:11.211Z,7.52
2023-04-20T22:32:39.855Z,7.50
2023-04-20T22:35:09.598Z,7.54
2023-04-20T22:37:38.032Z,7.60
2023-04-20T22:40:08.210Z,7.64
2023-04-20T22:42:36.553Z,7.61
2023-04-20T22:45:05.637Z,7.65
2023-04-20T22:47:34.033Z,7.69
2023-04-20T22:50:03.446Z,7.72
2023-04-20T22:52:32.740Z,7.71
2023-04-20T22:55:01.064Z,7.71
2023-04-20T22:57:29.442Z,7.63
2023-04-20T22:59:57.781Z,7.52
2023-04-20T23:02:27.096Z,7.47
2023-04-20T23:04:56.173Z,7.44
2023-04-20T23:07:24.463Z,7.52
2023-04-20T23:09:54.256Z,7.61
2023-04-20T23:12:22.843Z,7.63
2023-04-20T23:14:51.351Z,7.60
2023-04-20T23:17:19.798Z,7.67
2023-04-20T23:19:48.125Z,7.69
2023-04-20T23:22:16.575Z,7.69
2023-04-20T23:24:44.966Z,7.73
2023-04-20T23:27:13.325Z,7.79
2023-04-20T23:29:41.828Z,7.83
2023-04-20T23:32:10.350Z,7.84
2023-04-20T23:34:38.857Z,7.86
2023-04-20T23:37:07.446Z,7.87
2023-04-20T23:39:38.963Z,7.88
2023-04-20T23:42:07.471Z,7.79
2023-04-20T23:44:35.873Z,7.78
2023-04-20T23:47:04.275Z,7.76
2023-04-20T23:49:32.822Z,7.70
2023-04-20T23:52:01.361Z,7.67
2023-04-20T23:54:31.786Z,7.68
2023-04-20T23:57:03.106Z,7.73
2023-04-20T23:59:31.436Z,7.73
